createdAt,value
2022-09-10T00:00:34.801Z,9.02
2022-09-10T00:02:01.371Z,8.65
2022-09-10T00:03:53.000Z,9.15
2022-09-10T00:04:34.863Z,9.30
2022-09-10T00:05:33.496Z,9.57
2022-09-10T00:05:55.920Z,9.02
2022-09-10T00:07:23.339Z,9.52
2022-09-10T00:09:26.528Z,9.95
2022-09-10T00:09:33.342Z,9.20
2022-09-10T00:10:02.287Z,9.35
2022-09-10T00:12:02.680Z,9.13
2022-09-10T00:12:28.047Z,9.50
2022-09-10T00:12:53.275Z,9.20
2022-09-10T00:13:21.096Z,9.38
2022-09-10T00:13:43.922Z,9.32
2022-09-10T00:14:13.721Z,9.32
2022-09-10T00:14:36.138Z,9.75
2022-09-10T00:14:59.135Z,9.98
2022-09-10T00:15:22.129Z,9.25
2022-09-10T00:16:47.801Z,10.10
2022-09-10T00:17:15.182Z,9.85
2022-09-10T00:17:39.304Z,9.23
2022-09-10T00:18:06.035Z,9.43
2022-09-10T00:22:59.168Z,9.65
2022-09-10T00:23:28.394Z,9.50
2022-09-10T00:24:57.803Z,9.65
2022-09-10T00:28:33.828Z,9.52
2022-09-10T00:29:03.451Z,10.07
2022-09-10T00:30:19.299Z,10.15
2022-09-10T00:30:47.938Z,9.60
2022-09-10T00:31:11.021Z,10.52
2022-09-10T00:31:34.876Z,9.93
2022-09-10T00:32:05.813Z,10.70
2022-09-10T00:32:28.050Z,9.90
2022-09-10T00:36:48.078Z,10.10
2022-09-10T00:42:49.234Z,10.40
2022-09-10T00:44:00.639Z,10.43
2022-09-10T00:44:39.538Z,10.10
2022-09-10T00:45:42.809Z,10.40
2022-09-10T00:49:42.402Z,10.63
2022-09-10T00:50:33.729Z,10.32
2022-09-10T00:51:00.671Z,10.70
2022-09-10T00:52:13.077Z,10.30
2022-09-10T00:53:49.329Z,9.73
2022-09-10T00:57:37.293Z,11.18
2022-09-10T00:58:20.841Z,10.73
2022-09-10T01:04:03.273Z,12.50
2022-09-10T01:04:38.128Z,12.60
2022-09-10T01:06:19.795Z,13.20
2022-09-10T01:07:46.017Z,13.88
2022-09-10T01:08:29.283Z,14.20
2022-09-10T01:08:43.380Z,10.93
2022-09-10T01:09:34.580Z,13.63
2022-09-10T01:10:35.362Z,13.90
2022-09-10T01:12:13.747Z,14.43
2022-09-10T01:16:53.045Z,14.38
2022-09-10T01:19:37.759Z,15.25
2022-09-10T01:20:43.734Z,14.98
2022-09-10T01:22:13.603Z,14.13
2022-09-10T01:23:23.072Z,14.65
2022-09-10T01:24:15.609Z,14.80
2022-09-10T01:26:37.105Z,15.00
2022-09-10T01:27:19.025Z,14.75
2022-09-10T01:28:01.386Z,15.18
2022-09-10T01:28:36.783Z,15.27
2022-09-10T01:30:26.494Z,15.40
2022-09-10T01:35:26.986Z,15.48
2022-09-10T01:36:07.313Z,16.13
2022-09-10T01:36:49.148Z,16.10
2022-09-10T02:06:01.056Z,15.65
2022-09-10T02:06:28.414Z,15.50
2022-09-10T02:07:40.310Z,16.20
2022-09-10T02:12:52.831Z,15.35
2022-09-10T02:13:15.609Z,15.55
2022-09-10T02:18:27.251Z,15.55
2022-09-10T02:24:35.834Z,14.52
2022-09-10T02:24:57.845Z,13.75
2022-09-10T02:25:21.805Z,14.18
2022-09-10T02:25:54.229Z,14.60
2022-09-10T02:26:22.645Z,13.70
2022-09-10T02:27:00.806Z,13.75
2022-09-10T02:27:23.842Z,13.73
2022-09-10T02:27:45.912Z,13.20
2022-09-10T02:28:09.106Z,13.48
2022-09-10T02:28:31.012Z,13.80
2022-09-10T02:28:55.884Z,14.02
2022-09-10T02:30:24.845Z,14.18
2022-09-10T02:30:48.206Z,13.75
2022-09-10T02:31:10.453Z,14.13
2022-09-10T02:31:59.556Z,14.10
2022-09-10T02:32:39.085Z,13.25
2022-09-10T02:33:35.933Z,14.68
2022-09-10T02:33:59.753Z,13.80
2022-09-10T02:34:21.981Z,13.32
2022-09-10T02:36:58.346Z,13.95
2022-09-10T02:37:34.354Z,13.40
2022-09-10T02:38:19.428Z,13.60
2022-09-10T02:39:05.821Z,13.70
2022-09-10T02:39:27.806Z,13.55
2022-09-10T02:39:49.734Z,13.75
2022-09-10T02:40:12.135Z,13.57
2022-09-10T02:40:34.267Z,12.60
2022-09-10T02:40:59.427Z,12.30
2022-09-10T02:41:22.849Z,12.85
2022-09-10T02:41:44.646Z,12.77
2022-09-10T02:42:32.785Z,12.63
2022-09-10T02:44:15.608Z,12.95
2022-09-10T02:46:35.642Z,12.10
2022-09-10T02:46:58.154Z,12.88
2022-09-10T02:47:20.151Z,12.70
2022-09-10T02:47:43.566Z,11.85
2022-09-10T02:48:05.437Z,11.68
2022-09-10T02:48:27.971Z,11.30
2022-09-10T02:49:15.652Z,11.10
2022-09-10T02:49:39.182Z,10.95
2022-09-10T02:50:02.143Z,11.30
2022-09-10T02:50:24.661Z,10.85
2022-09-10T02:50:46.471Z,10.93
2022-09-10T02:51:08.479Z,11.52
2022-09-10T02:51:30.330Z,11.10
2022-09-10T02:51:52.206Z,10.65
2022-09-10T02:52:56.131Z,10.50
2022-09-10T02:54:57.479Z,9.88
2022-09-10T02:55:19.351Z,9.20
2022-09-10T02:55:44.211Z,9.13
2022-09-10T02:56:07.664Z,9.05
2022-09-10T02:56:29.462Z,9.68
2022-09-10T02:56:51.153Z,9.48
2022-09-10T02:57:12.923Z,9.30
2022-09-10T02:57:34.725Z,9.20
2022-09-10T02:57:56.648Z,9.18
2022-09-10T02:58:18.853Z,9.23
2022-09-10T02:58:40.727Z,9.85
2022-09-10T02:59:02.842Z,9.63
2022-09-10T02:59:25.080Z,9.27
2022-09-10T02:59:46.848Z,9.43
2022-09-10T03:00:09.200Z,9.57
2022-09-10T03:00:32.737Z,9.55
2022-09-10T03:01:04.722Z,9.35
2022-09-10T03:01:26.658Z,9.25
2022-09-10T03:01:48.621Z,9.57
2022-09-10T03:02:10.489Z,9.38
2022-09-10T03:02:32.528Z,9.40
2022-09-10T03:03:55.394Z,9.63
2022-09-10T03:04:19.184Z,9.27
2022-09-10T03:04:41.078Z,8.98
2022-09-10T03:05:05.217Z,8.95
2022-09-10T03:05:27.009Z,9.27
2022-09-10T03:05:48.865Z,9.07
2022-09-10T03:06:11.333Z,9.07
2022-09-10T03:06:33.383Z,9.50
2022-09-10T03:08:16.805Z,9.48
2022-09-10T03:08:32.690Z,9.25
2022-09-10T03:08:55.723Z,9.07
2022-09-10T03:09:38.044Z,8.85
2022-09-10T03:10:21.100Z,9.07
2022-09-10T03:10:42.958Z,8.85
2022-09-10T03:11:05.504Z,9.13
2022-09-10T03:11:27.542Z,9.10
2022-09-10T03:11:50.465Z,9.50
2022-09-10T03:12:19.031Z,8.82
2022-09-10T03:12:40.997Z,8.85
2022-09-10T03:13:03.201Z,9.07
2022-09-10T03:13:27.619Z,8.98
2022-09-10T03:13:50.360Z,9.27
2022-09-10T03:14:36.585Z,9.00
2022-09-10T03:17:19.072Z,8.60
2022-09-10T03:18:55.829Z,8.48
2022-09-10T03:19:17.644Z,8.98
2022-09-10T03:19:40.089Z,8.63
2022-09-10T03:20:03.617Z,8.98
2022-09-10T03:22:31.434Z,9.60
2022-09-10T03:22:51.496Z,9.20
2022-09-10T03:23:40.446Z,9.00
2022-09-10T03:24:05.115Z,9.43
2022-09-10T03:26:23.317Z,9.82
2022-09-10T03:26:44.482Z,10.30
2022-09-10T03:27:07.027Z,9.65
2022-09-10T03:27:28.865Z,9.68
2022-09-10T03:27:50.749Z,9.82
2022-09-10T03:28:13.544Z,9.75
2022-09-10T03:28:35.982Z,10.07
2022-09-10T03:28:57.790Z,9.38
2022-09-10T03:29:20.267Z,9.85
2022-09-10T03:30:50.318Z,9.32
2022-09-10T03:31:13.779Z,9.95
2022-09-10T03:31:36.404Z,9.25
2022-09-10T03:31:59.263Z,8.82
2022-09-10T03:32:21.253Z,9.32
2022-09-10T03:32:43.308Z,9.48
2022-09-10T03:33:05.459Z,9.10
2022-09-10T03:33:28.567Z,9.52
2022-09-10T03:33:51.140Z,9.10
2022-09-10T03:34:52.324Z,9.38
2022-09-10T03:35:05.214Z,9.20
2022-09-10T03:35:27.216Z,9.18
2022-09-10T03:35:49.017Z,8.80
2022-09-10T03:36:13.299Z,9.38
2022-09-10T03:36:35.068Z,9.82
2022-09-10T03:36:59.506Z,10.00
2022-09-10T03:37:24.238Z,9.30
2022-09-10T03:37:46.025Z,9.20
2022-09-10T03:38:07.806Z,9.35
2022-09-10T03:38:29.681Z,9.48
2022-09-10T03:38:51.641Z,9.43
2022-09-10T03:39:14.921Z,9.77
2022-09-10T03:39:36.772Z,9.55
2022-09-10T03:39:58.848Z,9.32
2022-09-10T03:40:20.804Z,9.02
2022-09-10T03:40:42.750Z,9.32
2022-09-10T03:41:04.900Z,8.85
2022-09-10T03:41:28.446Z,9.45
2022-09-10T03:41:50.212Z,9.70
2022-09-10T03:42:12.591Z,9.60
2022-09-10T03:42:38.447Z,9.50
2022-09-10T03:43:23.559Z,9.15
2022-09-10T03:43:45.921Z,9.70
2022-09-10T03:44:08.076Z,9.63
2022-09-10T03:46:45.908Z,9.07
2022-09-10T03:47:11.722Z,9.07
2022-09-10T03:47:33.412Z,8.77
2022-09-10T03:51:17.701Z,8.35
2022-09-10T03:51:39.537Z,7.85
2022-09-10T03:52:02.771Z,8.02
2022-09-10T03:52:26.725Z,8.57
2022-09-10T03:52:48.461Z,8.23
2022-09-10T03:53:11.912Z,8.40
2022-09-10T03:53:33.966Z,8.85
2022-09-10T03:53:55.947Z,8.38
2022-09-10T03:54:17.760Z,8.60
2022-09-10T03:54:40.136Z,8.45
2022-09-10T03:55:02.097Z,8.65
2022-09-10T03:55:24.246Z,8.68
2022-09-10T03:55:50.818Z,8.43
2022-09-10T03:56:12.627Z,8.73
2022-09-10T03:56:35.199Z,8.23
2022-09-10T03:56:57.172Z,8.73
2022-09-10T03:57:26.024Z,8.70
2022-09-10T03:57:47.967Z,9.10
2022-09-10T03:58:19.537Z,9.05
2022-09-10T03:59:19.665Z,9.05
2022-09-10T03:59:41.665Z,9.13
2022-09-10T04:00:05.899Z,9.15
2022-09-10T04:00:27.808Z,8.55
2022-09-10T04:00:49.967Z,8.52
2022-09-10T04:01:11.904Z,8.75
2022-09-10T04:01:33.944Z,9.15
2022-09-10T04:01:56.136Z,9.50
2022-09-10T04:02:18.233Z,8.75
2022-09-10T04:02:41.704Z,8.88
2022-09-10T04:03:04.658Z,8.65
2022-09-10T04:03:26.511Z,9.00
2022-09-10T04:03:48.566Z,9.10
2022-09-10T04:04:10.636Z,9.40
2022-09-10T04:04:33.861Z,8.93
2022-09-10T04:04:58.105Z,9.10
2022-09-10T04:07:03.109Z,9.25
2022-09-10T04:07:25.032Z,9.50
2022-09-10T04:07:47.381Z,9.43
2022-09-10T04:08:28.216Z,9.55
2022-09-10T04:08:52.825Z,9.68
2022-09-10T04:09:14.638Z,9.80
2022-09-10T04:09:36.681Z,9.43
2022-09-10T04:09:58.634Z,9.52
2022-09-10T04:10:21.800Z,9.90
2022-09-10T04:10:44.627Z,9.98
2022-09-10T04:12:06.131Z,9.48
2022-09-10T04:12:53.451Z,9.45
2022-09-10T04:13:15.363Z,9.77
2022-09-10T04:13:37.210Z,10.18
2022-09-10T04:16:27.646Z,9.43
2022-09-10T04:16:49.852Z,9.10
2022-09-10T04:17:12.882Z,9.10
2022-09-10T04:18:13.696Z,9.43
2022-09-10T04:18:35.658Z,9.90
2022-09-10T04:19:02.400Z,9.52
2022-09-10T04:21:44.660Z,9.02
2022-09-10T04:22:07.434Z,9.20
2022-09-10T04:22:29.287Z,8.95
2022-09-10T04:30:04.439Z,8.10
2022-09-10T04:31:39.165Z,8.80
2022-09-10T04:32:01.173Z,8.38
2022-09-10T04:32:23.203Z,8.32
2022-09-10T04:32:45.250Z,8.60
2022-09-10T04:33:07.754Z,8.52
2022-09-10T04:34:59.244Z,8.00
2022-09-10T04:35:21.647Z,8.38
2022-09-10T04:39:28.730Z,7.47
2022-09-10T04:40:29.277Z,7.43
2022-09-10T04:43:02.377Z,7.68
2022-09-10T04:43:27.636Z,7.93
2022-09-10T04:44:33.993Z,7.60
2022-09-10T04:49:07.192Z,7.50
2022-09-10T04:51:05.396Z,7.60
2022-09-10T04:51:16.014Z,8.20
2022-09-10T04:51:38.793Z,7.90
2022-09-10T04:52:18.604Z,7.93
2022-09-10T04:52:40.529Z,8.13
2022-09-10T04:53:02.460Z,8.23
2022-09-10T04:53:25.537Z,7.80
2022-09-10T04:53:47.325Z,8.13
2022-09-10T04:54:12.080Z,8.35
2022-09-10T04:54:34.061Z,8.40
2022-09-10T04:54:56.010Z,7.97
2022-09-10T04:55:17.887Z,8.10
2022-09-10T04:55:42.977Z,8.50
2022-09-10T04:56:06.905Z,8.20
2022-09-10T04:56:29.786Z,7.97
2022-09-10T04:57:11.790Z,7.55
2022-09-10T04:57:34.176Z,7.95
2022-09-10T04:59:21.919Z,8.18
2022-09-10T04:59:54.176Z,7.90
2022-09-10T05:00:28.390Z,7.72
2022-09-10T05:00:52.205Z,7.80
2022-09-10T05:01:14.252Z,7.60
2022-09-10T05:01:40.487Z,7.55
2022-09-10T05:02:16.220Z,7.55
2022-09-10T05:02:40.398Z,7.80
2022-09-10T05:03:06.332Z,7.15
2022-09-10T05:03:29.848Z,7.63
2022-09-10T05:03:54.404Z,7.40
2022-09-10T05:04:45.240Z,7.45
2022-09-10T05:05:07.481Z,7.57
2022-09-10T05:05:29.456Z,7.40
2022-09-10T05:05:51.981Z,7.28
2022-09-10T05:06:14.774Z,7.28
2022-09-10T05:06:36.826Z,7.30
2022-09-10T05:06:58.966Z,7.53
2022-09-10T05:07:22.372Z,7.50
2022-09-10T05:09:36.164Z,7.45
2022-09-10T05:10:05.995Z,7.63
2022-09-10T05:10:35.908Z,7.35
2022-09-10T05:10:58.265Z,7.40
2022-09-10T05:11:25.997Z,7.47
2022-09-10T05:11:47.936Z,7.55
2022-09-10T05:12:10.506Z,7.78
2022-09-10T05:13:18.401Z,7.65
2022-09-10T05:13:52.103Z,7.80
2022-09-10T05:14:23.192Z,7.38
2022-09-10T05:15:24.687Z,7.57
2022-09-10T05:15:46.639Z,7.22
2022-09-10T05:16:08.550Z,7.65
2022-09-10T05:16:30.455Z,7.43
2022-09-10T05:16:52.495Z,7.80
2022-09-10T05:17:18.390Z,7.65
2022-09-10T05:17:54.552Z,7.32
2022-09-10T05:18:18.140Z,7.43
2022-09-10T05:18:53.572Z,7.70
2022-09-10T05:19:20.253Z,7.10
2022-09-10T05:19:42.197Z,7.15
2022-09-10T05:20:06.434Z,7.72
2022-09-10T05:20:31.785Z,8.27
2022-09-10T05:20:53.900Z,7.72
2022-09-10T05:21:18.880Z,7.75
2022-09-10T05:21:43.692Z,7.72
2022-09-10T05:22:06.590Z,7.40
2022-09-10T05:22:41.563Z,7.88
2022-09-10T05:23:26.567Z,7.57
2022-09-10T05:24:24.852Z,7.75
2022-09-10T05:24:49.978Z,7.30
2022-09-10T05:26:35.552Z,7.72
2022-09-10T05:27:32.059Z,7.60
2022-09-10T05:28:55.020Z,7.95
2022-09-10T05:29:17.014Z,7.50
2022-09-10T05:30:20.069Z,7.97
2022-09-10T05:31:17.191Z,8.15
2022-09-10T05:31:56.736Z,8.25
2022-09-10T05:32:50.805Z,8.10
2022-09-10T05:34:50.385Z,8.15
2022-09-10T05:35:12.173Z,7.80
2022-09-10T05:49:10.044Z,8.40
2022-09-10T05:50:41.165Z,8.18
2022-09-10T05:51:18.516Z,7.95
2022-09-10T05:52:22.458Z,8.05
2022-09-10T05:53:03.029Z,7.47
2022-09-10T05:54:03.060Z,8.30
2022-09-10T05:54:40.561Z,8.38
2022-09-10T05:55:10.505Z,8.05
2022-09-10T05:55:39.019Z,8.85
2022-09-10T05:56:01.958Z,8.30
2022-09-10T06:19:38.555Z,9.60
2022-09-10T06:20:02.319Z,9.48
2022-09-10T06:20:27.720Z,9.35
2022-09-10T06:20:53.704Z,9.40
2022-09-10T06:21:19.116Z,8.70
2022-09-10T06:21:44.953Z,8.95
2022-09-10T06:22:11.884Z,8.95
2022-09-10T06:22:40.307Z,9.18
2022-09-10T06:23:05.748Z,8.90
2022-09-10T06:23:28.096Z,9.00
2022-09-10T06:23:59.546Z,8.65
2022-09-10T06:24:28.087Z,8.90
2022-09-10T06:24:54.131Z,9.48
2022-09-10T06:25:18.346Z,9.55
2022-09-10T06:25:43.589Z,9.20
2022-09-10T06:26:13.901Z,9.02
2022-09-10T06:26:53.522Z,9.07
2022-09-10T06:27:16.514Z,9.45
2022-09-10T06:27:38.960Z,9.52
2022-09-10T06:28:04.492Z,9.77
2022-09-10T06:28:34.700Z,8.57
2022-09-10T06:29:01.461Z,8.40
2022-09-10T06:29:32.964Z,8.30
2022-09-10T06:30:15.975Z,9.18
2022-09-10T06:30:40.531Z,8.57
2022-09-10T06:31:06.387Z,8.43
2022-09-10T06:31:29.429Z,8.30
2022-09-10T06:31:51.783Z,8.70
2022-09-10T06:32:14.639Z,8.50
2022-09-10T06:32:38.671Z,8.10
2022-09-10T06:33:03.743Z,8.02
2022-09-10T06:33:38.160Z,8.65
2022-09-10T06:34:07.442Z,8.73
2022-09-10T06:34:33.405Z,8.27
2022-09-10T06:35:53.779Z,8.75
2022-09-10T07:31:37.723Z,11.55
2022-09-10T07:32:13.359Z,11.05
2022-09-10T07:32:38.164Z,11.95
2022-09-10T07:33:04.515Z,11.45
2022-09-10T07:49:07.158Z,9.38
2022-09-10T07:49:41.701Z,9.38
2022-09-10T07:50:08.097Z,9.15
2022-09-10T07:50:41.578Z,9.17
2022-09-10T07:51:22.097Z,9.20
2022-09-10T07:51:45.886Z,9.40
2022-09-10T07:52:54.161Z,9.70
2022-09-10T08:18:43.987Z,8.35
2022-09-10T08:19:06.698Z,7.97
2022-09-10T08:19:30.240Z,8.45
2022-09-10T08:20:00.470Z,7.95
2022-09-10T08:20:31.063Z,8.50
2022-09-10T08:21:00.480Z,8.63
2022-09-10T08:21:23.025Z,7.93
2022-09-10T08:21:49.260Z,7.82
2022-09-10T08:22:13.889Z,8.35
2022-09-10T08:23:01.346Z,7.85
2022-09-10T08:23:25.968Z,7.68
2022-09-10T08:24:35.455Z,7.78
2022-09-10T08:25:08.639Z,8.05
2022-09-10T08:26:11.640Z,8.00
2022-09-10T08:26:33.831Z,7.32
2022-09-10T08:27:05.895Z,7.18
2022-09-10T08:27:33.853Z,7.50
2022-09-10T08:27:58.500Z,7.45
2022-09-10T08:28:25.551Z,8.10
2022-09-10T08:29:04.001Z,8.13
2022-09-10T08:30:05.897Z,7.57
2022-09-10T08:30:44.097Z,8.10
2022-09-10T08:33:12.729Z,7.28
2022-09-10T08:33:43.183Z,8.02
2022-09-10T08:47:28.022Z,7.32
2022-09-10T08:48:18.910Z,7.03
2022-09-10T08:48:47.537Z,7.38
2022-09-10T09:48:47.630Z,15.25
2022-09-10T10:21:31.122Z,9.12
2022-09-10T10:31:23.770Z,8.55
2022-09-10T11:02:57.954Z,11.73
2022-09-10T11:03:23.457Z,10.68
2022-09-10T11:04:11.849Z,10.32
2022-09-10T11:04:55.374Z,9.68
2022-09-10T11:05:25.822Z,11.65
2022-09-10T11:06:00.794Z,11.23
2022-09-10T11:06:26.182Z,11.07
2022-09-10T11:06:54.950Z,10.15
2022-09-10T11:07:41.232Z,10.07
2022-09-10T11:08:34.838Z,9.95
2022-09-10T11:09:11.417Z,9.00
2022-09-10T11:09:42.856Z,8.60
2022-09-10T11:10:26.004Z,8.77
2022-09-10T11:11:04.130Z,8.70
2022-09-10T11:11:34.098Z,9.40
2022-09-10T11:12:04.153Z,8.82
2022-09-10T11:12:35.784Z,8.90
2022-09-10T11:13:03.992Z,9.10
2022-09-10T11:13:43.622Z,9.18
2022-09-10T11:14:37.544Z,9.20
2022-09-10T11:15:21.338Z,9.18
2022-09-10T11:16:07.760Z,9.57
2022-09-10T11:16:43.473Z,9.55
2022-09-10T11:17:10.922Z,9.88
2022-09-10T11:17:58.527Z,10.00
2022-09-10T11:18:43.822Z,9.85
2022-09-10T11:19:27.252Z,10.35
2022-09-10T11:20:29.044Z,9.85
2022-09-10T11:21:03.089Z,10.00
2022-09-10T11:21:30.334Z,10.10
2022-09-10T11:21:58.802Z,9.23
2022-09-10T11:22:25.979Z,10.68
2022-09-10T11:23:03.691Z,11.13
2022-09-10T11:23:30.638Z,10.35
2022-09-10T11:24:17.109Z,10.15
2022-09-10T11:25:04.942Z,10.80
2022-09-10T11:25:34.188Z,10.80
2022-09-10T11:26:12.763Z,10.57
2022-09-10T11:26:44.067Z,10.52
2022-09-10T11:27:14.512Z,10.30
2022-09-10T11:27:49.522Z,10.35
2022-09-10T11:28:16.259Z,10.50
2022-09-10T11:28:41.586Z,10.13
2022-09-10T11:29:25.320Z,10.07
2022-09-10T11:29:57.153Z,11.63
2022-09-10T11:30:19.366Z,13.93
2022-09-10T11:30:45.066Z,13.52
2022-09-10T11:31:30.622Z,13.43
2022-09-10T11:32:21.186Z,12.70
2022-09-10T11:32:52.789Z,12.20
2022-09-10T11:33:14.817Z,11.27
2022-09-10T11:33:49.158Z,11.40
2022-09-10T11:34:22.781Z,10.88
2022-09-10T11:34:47.679Z,11.73
2022-09-10T11:35:33.905Z,11.73
2022-09-10T11:36:06.109Z,11.77
2022-09-10T11:36:34.076Z,11.65
2022-09-10T11:37:12.391Z,11.40
2022-09-10T11:37:55.199Z,11.35
2022-09-10T11:38:32.682Z,10.60
2022-09-10T11:39:16.392Z,11.50
2022-09-10T11:39:45.120Z,11.18
2022-09-10T11:40:18.699Z,12.05
2022-09-10T11:40:52.284Z,12.00
2022-09-10T11:41:23.602Z,11.90
2022-09-10T11:41:49.198Z,11.18
2022-09-10T11:42:18.598Z,11.00
2022-09-10T11:42:45.279Z,12.05
2022-09-10T11:43:38.801Z,12.10
2022-09-10T11:44:16.379Z,12.50
2022-09-10T11:44:58.258Z,13.70
2022-09-10T11:45:40.993Z,12.82
2022-09-10T11:46:08.265Z,13.07
2022-09-10T11:46:44.825Z,13.18
2022-09-10T12:17:41.944Z,13.00
2022-09-10T12:18:17.072Z,12.93
2022-09-10T12:18:49.153Z,12.77
2022-09-10T12:20:01.447Z,12.35
2022-09-10T12:20:37.475Z,12.27
2022-09-10T12:21:06.090Z,12.25
2022-09-10T12:21:52.488Z,11.98
2022-09-10T12:22:23.791Z,11.80
2022-09-10T12:22:53.586Z,11.25
2022-09-10T12:23:35.952Z,12.32
2022-09-10T12:24:06.974Z,11.10
2022-09-10T12:24:40.709Z,11.63
2022-09-10T12:25:24.011Z,11.88
2022-09-10T12:25:58.471Z,11.35
2022-09-10T12:26:24.509Z,11.93
2022-09-10T12:26:46.507Z,11.57
2022-09-10T12:27:19.948Z,11.32
2022-09-10T12:28:05.646Z,12.20
2022-09-10T12:28:43.201Z,11.40
2022-09-10T12:29:07.286Z,11.93
2022-09-10T12:29:41.985Z,11.57
2022-09-10T12:30:26.307Z,11.07
2022-09-10T12:31:22.236Z,11.73
2022-09-10T12:32:29.744Z,11.50
2022-09-10T12:32:59.301Z,11.10
2022-09-10T12:33:21.799Z,10.85
2022-09-10T12:33:46.381Z,11.40
2022-09-10T12:34:18.103Z,11.45
2022-09-10T12:34:43.855Z,11.55
2022-09-10T12:35:31.468Z,11.40
2022-09-10T12:35:54.439Z,12.25
2022-09-10T12:36:31.225Z,11.93
2022-09-10T12:36:56.160Z,12.02
2022-09-10T12:37:37.230Z,11.38
2022-09-10T12:38:38.428Z,11.63
2022-09-10T12:39:27.912Z,10.35
2022-09-10T12:40:13.660Z,11.20
2022-09-10T12:40:35.697Z,12.15
2022-09-10T12:40:57.949Z,11.40
2022-09-10T12:41:28.127Z,11.57
2022-09-10T12:41:56.433Z,11.07
2022-09-10T12:42:34.651Z,11.07
2022-09-10T12:43:38.037Z,10.82
2022-09-10T12:44:25.460Z,10.98
2022-09-10T12:44:47.877Z,11.05
2022-09-10T12:45:10.070Z,10.55
2022-09-10T12:46:25.546Z,10.70
2022-09-10T12:46:48.928Z,11.30
2022-09-10T12:47:54.591Z,11.65
2022-09-10T12:48:23.944Z,11.77
2022-09-10T12:49:17.520Z,11.00
2022-09-10T12:50:01.609Z,11.30
2022-09-10T12:50:34.781Z,10.82
2022-09-10T12:51:00.908Z,10.50
2022-09-10T12:51:56.892Z,11.07
2022-09-10T12:52:35.406Z,10.40
2022-09-10T12:53:26.020Z,10.50
2022-09-10T12:54:12.871Z,10.70
2022-09-10T12:55:14.213Z,11.43
2022-09-10T12:56:50.483Z,10.32
2022-09-10T12:57:20.924Z,10.80
2022-09-10T12:57:58.564Z,10.50
2022-09-10T12:58:39.409Z,9.85
2022-09-10T12:59:30.033Z,10.43
2022-09-10T13:00:38.248Z,10.02
2022-09-10T13:01:26.598Z,10.05
2022-09-10T13:02:04.125Z,9.10
2022-09-10T13:03:21.321Z,9.75
2022-09-10T13:04:03.371Z,9.50
2022-09-10T13:04:46.906Z,9.50
2022-09-10T13:05:49.726Z,10.13
2022-09-10T13:06:16.184Z,9.73
2022-09-10T13:07:05.372Z,9.52
2022-09-10T13:07:47.492Z,9.70
2022-09-10T13:08:17.679Z,9.95
2022-09-10T13:08:50.542Z,9.60
2022-09-10T13:09:38.450Z,9.80
2022-09-10T13:10:22.090Z,9.93
2022-09-10T13:10:55.386Z,9.43
2022-09-10T13:11:22.276Z,10.45
2022-09-10T13:11:57.055Z,10.07
2022-09-10T13:12:30.876Z,9.82
2022-09-10T13:13:11.090Z,9.77
2022-09-10T13:13:45.419Z,9.70
2022-09-10T13:14:17.600Z,10.45
2022-09-10T13:14:47.850Z,10.35
2022-09-10T13:15:23.919Z,10.35
2022-09-10T13:15:56.208Z,9.80
2022-09-10T13:16:26.901Z,9.50
2022-09-10T13:16:58.106Z,10.63
2022-09-10T13:17:47.409Z,10.27
2022-09-10T13:18:14.219Z,10.50
2022-09-10T13:18:37.836Z,9.82
2022-09-10T13:19:18.107Z,10.05
2022-09-10T13:19:54.729Z,10.13
2022-09-10T13:20:31.929Z,9.88
2022-09-10T13:20:58.418Z,9.95
2022-09-10T13:21:23.725Z,10.18
2022-09-10T13:21:48.469Z,9.82
2022-09-10T13:22:31.561Z,10.32
2022-09-10T13:23:10.579Z,9.60
2022-09-10T13:23:47.971Z,10.27
2022-09-10T13:24:36.369Z,9.85
2022-09-10T13:25:43.755Z,9.50
2022-09-10T13:26:31.790Z,9.98
2022-09-10T13:27:26.346Z,9.52
2022-09-10T13:27:48.893Z,9.02
2022-09-10T13:28:33.522Z,9.07
2022-09-10T13:28:57.002Z,9.13
2022-09-10T13:30:10.760Z,8.48
2022-09-10T13:30:35.200Z,8.60
2022-09-10T13:31:09.065Z,8.63
2022-09-10T13:31:38.406Z,8.82
2022-09-10T13:32:07.962Z,8.55
2022-09-10T13:33:08.828Z,8.57
2022-09-10T13:33:39.681Z,8.75
2022-09-10T13:34:15.305Z,8.88
2022-09-10T13:35:07.751Z,7.85
2022-09-10T13:36:03.231Z,8.27
2022-09-10T13:37:13.687Z,9.15
2022-09-10T13:38:14.279Z,9.02
2022-09-10T13:39:18.104Z,8.50
2022-09-10T13:40:18.404Z,9.40
2022-09-10T13:41:13.222Z,8.60
2022-09-10T13:41:57.191Z,8.30
2022-09-10T13:42:43.083Z,8.57
2022-09-10T13:43:29.568Z,8.00
2022-09-10T13:44:16.661Z,7.90
2022-09-10T13:44:51.221Z,8.10
2022-09-10T13:45:49.306Z,8.40
2022-09-10T13:46:25.277Z,7.78
2022-09-10T13:47:03.082Z,7.93
2022-09-10T13:47:41.034Z,7.75
2022-09-10T13:48:15.426Z,7.68
2022-09-10T13:49:03.750Z,8.13
2022-09-10T13:49:46.706Z,7.90
2022-09-10T13:50:16.181Z,8.13
2022-09-10T13:51:05.356Z,8.50
2022-09-10T13:51:52.771Z,8.10
2022-09-10T13:52:17.567Z,7.80
2022-09-10T13:52:45.701Z,8.32
2022-09-10T13:53:17.623Z,7.70
2022-09-10T13:53:49.403Z,7.97
2022-09-10T13:54:34.265Z,8.00
2022-09-10T13:55:01.384Z,7.75
2022-09-10T13:55:29.899Z,7.33
2022-09-10T13:56:12.331Z,7.40
2022-09-10T13:56:43.756Z,6.75
2022-09-10T13:57:14.040Z,6.65
2022-09-10T13:57:45.834Z,7.28
2022-09-10T13:58:30.755Z,6.93
2022-09-10T13:59:05.561Z,6.32
2022-09-10T13:59:31.285Z,6.63
2022-09-10T14:00:11.118Z,6.63
2022-09-10T14:00:44.663Z,6.50
2022-09-10T14:01:06.691Z,7.07
2022-09-10T14:02:06.367Z,6.78
2022-09-10T14:03:15.679Z,6.57
2022-09-10T14:03:39.081Z,6.60
2022-09-10T14:04:37.934Z,6.88
2022-09-10T14:05:05.047Z,6.95
2022-09-10T14:05:53.592Z,6.95
2022-09-10T14:06:37.450Z,6.80
2022-09-10T14:07:17.472Z,6.60
2022-09-10T14:07:41.029Z,6.60
2022-09-10T14:08:21.924Z,6.80
2022-09-10T14:08:56.037Z,6.35
2022-09-10T14:09:24.550Z,6.63
2022-09-10T14:09:52.612Z,6.40
2022-09-10T14:10:18.796Z,6.60
2022-09-10T14:11:00.860Z,6.47
2022-09-10T14:11:29.715Z,6.53
2022-09-10T14:11:54.307Z,6.45
2022-09-10T14:12:21.445Z,6.57
2022-09-10T14:12:44.389Z,6.45
2022-09-10T14:14:06.397Z,6.53
2022-09-10T14:14:35.077Z,6.57
2022-09-10T14:15:00.306Z,6.57
2022-09-10T14:15:29.396Z,6.45
2022-09-10T14:15:53.194Z,6.47
2022-09-10T14:16:43.103Z,6.70
2022-09-10T14:17:12.740Z,6.57
2022-09-10T14:17:43.179Z,6.47
2022-09-10T14:18:05.221Z,6.28
2022-09-10T14:18:39.810Z,6.15
2022-09-10T14:19:04.067Z,6.05
2022-09-10T14:19:32.508Z,6.15
2022-09-10T14:20:01.806Z,6.50
2022-09-10T14:20:29.402Z,6.10
2022-09-10T14:20:54.158Z,6.20
2022-09-10T14:21:57.658Z,6.80
2022-09-10T14:22:22.267Z,6.78
2022-09-10T14:22:45.025Z,6.80
2022-09-10T14:23:16.894Z,6.50
2022-09-10T14:23:43.374Z,6.88
2022-09-10T14:24:05.348Z,7.20
2022-09-10T14:24:45.673Z,7.50
2022-09-10T14:25:09.804Z,6.75
2022-09-10T14:25:41.770Z,6.70
2022-09-10T14:26:12.380Z,6.72
2022-09-10T14:26:34.387Z,6.95
2022-09-10T14:27:26.972Z,6.53
2022-09-10T14:27:52.345Z,6.80
2022-09-10T14:28:16.956Z,6.70
2022-09-10T14:28:50.474Z,6.50
2022-09-10T14:29:25.557Z,6.20
2022-09-10T14:29:47.554Z,6.38
2022-09-10T14:30:23.054Z,6.95
2022-09-10T14:30:46.992Z,6.55
2022-09-10T14:31:20.789Z,7.07
2022-09-10T14:31:42.833Z,6.82
2022-09-10T14:32:18.290Z,6.22
2022-09-10T14:32:40.718Z,6.50
2022-09-10T14:33:21.242Z,6.43
2022-09-10T14:33:43.144Z,6.13
2022-09-10T14:34:30.563Z,6.28
2022-09-10T14:34:52.353Z,6.30
2022-09-10T14:35:39.883Z,6.60
2022-09-10T14:36:19.219Z,6.70
2022-09-10T14:36:41.196Z,6.38
2022-09-10T14:37:25.801Z,6.82
2022-09-10T14:37:47.543Z,6.40
2022-09-10T14:38:29.473Z,6.15
2022-09-10T14:39:22.610Z,6.55
2022-09-10T14:39:44.890Z,6.63
2022-09-10T14:40:17.932Z,6.47
2022-09-10T14:40:39.803Z,6.22
2022-09-10T14:41:16.279Z,6.65
2022-09-10T14:41:38.071Z,6.50
2022-09-10T14:42:28.091Z,6.13
2022-09-10T14:42:50.646Z,5.85
2022-09-10T14:43:25.129Z,6.30
2022-09-10T14:43:46.892Z,6.47
2022-09-10T14:44:23.860Z,6.15
2022-09-10T14:44:46.159Z,6.30
2022-09-10T14:45:41.680Z,6.30
2022-09-10T14:46:05.290Z,6.47
2022-09-10T14:46:54.126Z,6.68
2022-09-10T14:47:28.433Z,6.50
2022-09-10T14:47:53.847Z,6.70
2022-09-10T14:48:38.554Z,6.93
2022-09-10T14:49:01.372Z,6.65
2022-09-10T14:49:27.039Z,6.32
2022-09-10T14:49:48.807Z,6.60
2022-09-10T14:50:25.993Z,6.43
2022-09-10T14:50:48.343Z,6.70
2022-09-10T14:51:23.994Z,6.90
2022-09-10T14:51:45.809Z,6.30
2022-09-10T14:52:08.013Z,6.35
2022-09-10T14:52:29.776Z,6.38
2022-09-10T14:52:51.473Z,6.57
2022-09-10T14:53:13.219Z,6.35
2022-09-10T14:53:37.356Z,6.43
2022-09-10T14:53:59.365Z,6.38
2022-09-10T14:54:21.250Z,5.93
2022-09-10T14:54:43.111Z,6.30
2022-09-10T14:55:05.134Z,6.32
2022-09-10T14:55:30.904Z,6.00
2022-09-10T14:55:54.133Z,6.35
2022-09-10T14:56:24.570Z,6.72
2022-09-10T14:56:47.985Z,7.03